createdAt,value
2023-02-04T00:00:48.611Z,100660.56
2023-02-04T00:03:17.649Z,100661.38
2023-02-04T00:05:46.390Z,100670.78
2023-02-04T00:08:15.027Z,100661.38
2023-02-04T00:10:43.628Z,100662.31
2023-02-04T00:13:15.178Z,100672.44
2023-02-04T00:15:43.840Z,100681.78
2023-02-04T00:18:13.937Z,100680.16
2023-02-04T00:20:42.556Z,100676.69
2023-02-04T00:23:11.179Z,100680.97
2023-02-04T00:25:39.775Z,100677.59
2023-02-04T00:28:08.427Z,100686.06
2023-02-04T00:30:37.060Z,100685.25
2023-02-04T00:33:05.806Z,100695.44
2023-02-04T00:35:37.375Z,100691.22
2023-02-04T00:38:06.740Z,100697.16
2023-02-04T00:40:35.425Z,100700.63
2023-02-04T00:43:04.093Z,100694.59
2023-02-04T00:45:32.868Z,100695.50
2023-02-04T00:48:01.553Z,100698.06
2023-02-04T00:50:30.365Z,100698.06
2023-02-04T00:53:01.991Z,100708.25
2023-02-04T00:55:31.870Z,100711.69
2023-02-04T00:58:00.741Z,100712.50
2023-02-04T01:00:30.226Z,100715.94
2023-02-04T01:02:59.145Z,100721.03
2023-02-04T01:05:27.963Z,100724.50
2023-02-04T01:07:56.687Z,100722.78
2023-02-04T01:10:29.826Z,100726.13
2023-02-04T01:12:59.291Z,100736.34
2023-02-04T01:15:28.945Z,100728.69
2023-02-04T01:17:57.626Z,100728.69
2023-02-04T01:20:26.471Z,100729.59
2023-02-04T01:22:55.215Z,100734.69
2023-02-04T01:25:23.971Z,100727.94
2023-02-04T01:27:54.192Z,100739.00
2023-02-04T01:30:23.031Z,100731.38
2023-02-04T01:32:51.706Z,100743.22
2023-02-04T01:35:20.354Z,100738.13
2023-02-04T01:37:48.948Z,100761.09
2023-02-04T01:40:17.792Z,100763.63
2023-02-04T01:42:46.475Z,100761.97
2023-02-04T01:45:16.524Z,100764.50
2023-02-04T01:47:45.801Z,100763.69
2023-02-04T01:50:17.120Z,100762.84
2023-02-04T01:52:46.959Z,100760.34
2023-02-04T01:55:19.276Z,100766.31
2023-02-04T01:57:48.711Z,100756.97
2023-02-04T02:00:25.659Z,100770.56
2023-02-04T02:02:55.565Z,100770.59
2023-02-04T02:05:30.102Z,100768.91
2023-02-04T02:08:03.252Z,100763.81
2023-02-04T02:10:33.086Z,100757.03
2023-02-04T02:13:02.283Z,100757.03
2023-02-04T02:15:33.668Z,100766.38
2023-02-04T02:18:12.279Z,100763.84
2023-02-04T02:20:41.104Z,100761.28
2023-02-04T02:23:19.639Z,100757.94
2023-02-04T02:25:50.187Z,100771.50
2023-02-04T02:28:22.835Z,100762.22
2023-02-04T02:30:52.687Z,100772.41
2023-02-04T02:33:22.522Z,100780.06
2023-02-04T02:35:51.675Z,100779.25
2023-02-04T02:38:21.464Z,100783.53
2023-02-04T02:40:52.846Z,100777.59
2023-02-04T02:43:26.898Z,100784.34
2023-02-04T02:45:58.413Z,100791.25
2023-02-04T02:48:27.528Z,100795.50
2023-02-04T02:50:56.402Z,100792.06
2023-02-04T02:53:25.058Z,100798.91
2023-02-04T02:55:56.374Z,100791.25
2023-02-04T02:58:32.370Z,100794.69
2023-02-04T03:01:02.369Z,100794.69
2023-02-04T03:03:35.374Z,100803.16
2023-02-04T03:06:11.845Z,100791.28
2023-02-04T03:08:41.844Z,100792.94
2023-02-04T03:11:11.912Z,100798.09
2023-02-04T03:13:41.425Z,100799.78
2023-02-04T03:16:10.419Z,100804.88
2023-02-04T03:18:40.466Z,100815.94
2023-02-04T03:21:09.878Z,100816.78
2023-02-04T03:23:39.404Z,100829.56
2023-02-04T03:26:08.691Z,100828.69
2023-02-04T03:28:43.596Z,100829.56
2023-02-04T03:31:12.414Z,100831.31
2023-02-04T03:33:42.552Z,100827.94
2023-02-04T03:36:11.362Z,100813.50
2023-02-04T03:38:40.162Z,100829.63
2023-02-04T03:41:08.757Z,100846.66
2023-02-04T03:43:37.369Z,100844.09
2023-02-04T03:46:07.566Z,100848.34
2023-02-04T03:48:36.231Z,100850.97
2023-02-04T03:51:05.286Z,100856.91
2023-02-04T03:53:33.961Z,100852.69
2023-02-04T03:56:02.548Z,100867.16
2023-02-04T03:58:31.180Z,100865.50
2023-02-04T04:01:00.032Z,100869.72
2023-02-04T04:03:30.040Z,100868.88
2023-02-04T04:05:58.612Z,100871.47
2023-02-04T04:08:27.299Z,100874.84
2023-02-04T04:10:56.086Z,100876.56
2023-02-04T04:13:24.843Z,100885.94
2023-02-04T04:15:53.492Z,100884.22
2023-02-04T04:18:22.122Z,100879.16
2023-02-04T04:20:52.086Z,100888.50
2023-02-04T04:23:20.707Z,100888.56
2023-02-04T04:25:49.410Z,100892.78
2023-02-04T04:28:18.243Z,100890.31
2023-02-04T04:30:47.128Z,100891.19
2023-02-04T04:33:15.767Z,100896.28
2023-02-04T04:35:44.383Z,100897.13
2023-02-04T04:38:14.714Z,100899.69
2023-02-04T04:40:43.440Z,100909.06
2023-02-04T04:43:12.073Z,100915.00
2023-02-04T04:45:40.691Z,100924.38
2023-02-04T04:48:09.274Z,100930.28
2023-02-04T04:50:37.942Z,100925.25
2023-02-04T04:53:11.058Z,100919.31
2023-02-04T04:55:41.219Z,100920.19
2023-02-04T04:58:10.190Z,100905.78
2023-02-04T05:00:38.858Z,100906.63
2023-02-04T05:03:07.700Z,100904.16
2023-02-04T05:05:39.996Z,100904.16
2023-02-04T05:08:10.984Z,100909.25
2023-02-04T05:10:41.042Z,100901.66
2023-02-04T05:13:09.748Z,100896.56
2023-02-04T05:15:38.447Z,100902.47
2023-02-04T05:18:07.630Z,100902.47
2023-02-04T05:20:36.301Z,100915.22
2023-02-04T05:23:05.813Z,100911.00
2023-02-04T05:25:34.782Z,100916.09
2023-02-04T05:28:05.054Z,100908.50
2023-02-04T05:30:34.055Z,100911.06
2023-02-04T05:33:02.936Z,100905.13
2023-02-04T05:35:31.597Z,100916.16
2023-02-04T05:38:00.171Z,100921.28
2023-02-04T05:40:28.814Z,100922.13
2023-02-04T05:42:57.520Z,100928.94
2023-02-04T05:45:27.637Z,100940.00
2023-02-04T05:47:56.265Z,100945.09
2023-02-04T05:50:24.954Z,100948.53
2023-02-04T05:53:10.048Z,100943.50
2023-02-04T05:55:38.762Z,100935.84
2023-02-04T05:58:07.390Z,100935.03
2023-02-04T06:00:37.380Z,100933.34
2023-02-04T06:03:06.172Z,100926.59
2023-02-04T06:05:34.979Z,100938.44
2023-02-04T06:08:03.630Z,100946.97
2023-02-04T06:10:32.617Z,100956.34
2023-02-04T06:13:01.522Z,100960.63
2023-02-04T06:15:30.268Z,100957.22
2023-02-04T06:18:00.400Z,100963.19
2023-02-04T06:20:29.280Z,100964.97
2023-02-04T06:22:58.718Z,100960.69
2023-02-04T06:25:27.838Z,100972.66
2023-02-04T06:27:56.522Z,100978.56
2023-02-04T06:30:25.166Z,100982.00
2023-02-04T06:32:53.948Z,100971.81
2023-02-04T06:35:24.007Z,100984.59
2023-02-04T06:37:52.628Z,100989.69
2023-02-04T06:40:21.374Z,100988.88
2023-02-04T06:42:49.972Z,100999.06
2023-02-04T06:45:18.763Z,101002.50
2023-02-04T06:47:47.434Z,100996.56
2023-02-04T06:50:18.889Z,100999.13
2023-02-04T06:52:50.064Z,100998.31
2023-02-04T06:55:19.150Z,101001.75
2023-02-04T06:57:47.726Z,101003.41
2023-02-04T07:00:17.328Z,101007.69
2023-02-04T07:02:46.210Z,101011.94
2023-02-04T07:05:15.003Z,101010.28
2023-02-04T07:07:43.707Z,101018.81
2023-02-04T07:10:14.374Z,101023.91
2023-02-04T07:12:43.019Z,101019.63
2023-02-04T07:15:12.206Z,101021.34
2023-02-04T07:17:40.880Z,101022.16
2023-02-04T07:20:11.452Z,101029.81
2023-02-04T07:22:40.211Z,101036.63
2023-02-04T07:25:10.147Z,101044.28
2023-02-04T07:27:40.208Z,101059.56
2023-02-04T07:30:10.772Z,101052.75
2023-02-04T07:32:39.529Z,101054.47
2023-02-04T07:35:09.211Z,101063.78
2023-02-04T07:37:37.903Z,101065.47
2023-02-04T07:40:07.883Z,101064.66
2023-02-04T07:42:36.547Z,101065.47
2023-02-04T07:45:13.707Z,101070.63
2023-02-04T07:47:42.334Z,101082.53
2023-02-04T07:50:11.447Z,101088.44
2023-02-04T07:52:40.150Z,101092.72
2023-02-04T07:55:09.457Z,101093.56
2023-02-04T07:57:38.038Z,101093.56
2023-02-04T08:00:07.819Z,101101.19
2023-02-04T08:02:44.128Z,101107.16
2023-02-04T08:05:13.495Z,101107.16
2023-02-04T08:07:42.298Z,101107.16
2023-02-04T08:10:12.852Z,101106.28
2023-02-04T08:12:41.592Z,101107.97
2023-02-04T08:15:11.144Z,101103.75
2023-02-04T08:17:39.908Z,101111.34
2023-02-04T08:20:12.066Z,101117.28
2023-02-04T08:22:41.058Z,101118.06
2023-02-04T08:25:11.713Z,101114.59
2023-02-04T08:27:40.735Z,101118.81
2023-02-04T08:30:11.118Z,101117.03
2023-02-04T08:32:40.409Z,101127.22
2023-02-04T08:35:10.826Z,101131.41
2023-02-04T08:37:39.694Z,101137.31
2023-02-04T08:40:10.828Z,101143.22
2023-02-04T08:42:41.342Z,101140.63
2023-02-04T08:45:11.032Z,101137.22
2023-02-04T08:47:39.687Z,101140.56
2023-02-04T08:50:12.151Z,101147.28
2023-02-04T08:52:40.915Z,101148.97
2023-02-04T08:55:10.901Z,101150.66
2023-02-04T08:57:39.508Z,101157.44
2023-02-04T09:00:09.453Z,101174.38
2023-02-04T09:02:38.017Z,101170.13
2023-02-04T09:05:07.795Z,101172.63
2023-02-04T09:07:37.810Z,101172.63
2023-02-04T09:10:07.284Z,101175.94
2023-02-04T09:12:36.262Z,101177.66
2023-02-04T09:15:05.504Z,101181.91
2023-02-04T09:17:34.592Z,101179.34
2023-02-04T09:20:03.232Z,101183.56
2023-02-04T09:22:31.842Z,101181.84
2023-02-04T09:25:01.777Z,101183.56
2023-02-04T09:27:30.457Z,101186.91
2023-02-04T09:29:59.199Z,101187.72
2023-02-04T09:32:27.873Z,101185.97
2023-02-04T09:34:56.534Z,101191.91
2023-02-04T09:37:27.030Z,101190.97
2023-02-04T09:39:55.719Z,101188.41
2023-02-04T09:42:27.694Z,101187.56
2023-02-04T09:44:56.359Z,101188.38
2023-02-04T09:47:28.426Z,101189.22
2023-02-04T09:49:57.125Z,101187.50
2023-02-04T09:52:27.298Z,101206.19
2023-02-04T09:54:55.970Z,101208.75
2023-02-04T09:57:25.924Z,101201.09
2023-02-04T09:59:55.471Z,101205.34
2023-02-04T10:02:27.274Z,101221.50
2023-02-04T10:04:59.160Z,101215.50
2023-02-04T10:07:28.936Z,101211.31
2023-02-04T10:09:57.826Z,101227.47
2023-02-04T10:12:27.850Z,101222.41
2023-02-04T10:14:56.926Z,101226.66
2023-02-04T10:17:25.579Z,101223.25
2023-02-04T10:19:54.466Z,101213.03
2023-02-04T10:22:23.935Z,101224.06
2023-02-04T10:24:52.559Z,101231.69
2023-02-04T10:27:21.251Z,101221.50
2023-02-04T10:29:58.873Z,101229.97
2023-02-04T10:32:30.513Z,101231.69
2023-02-04T10:35:01.415Z,101246.13
2023-02-04T10:37:32.214Z,101252.97
2023-02-04T10:40:00.996Z,101246.13
2023-02-04T10:42:31.678Z,101251.28
2023-02-04T10:45:01.808Z,101248.72
2023-02-04T10:47:31.788Z,101242.81
2023-02-04T10:50:06.258Z,101252.97
2023-02-04T10:52:39.464Z,101246.13
2023-02-04T10:55:14.692Z,101251.22
2023-02-04T10:57:46.296Z,101245.31
2023-02-04T11:00:20.137Z,101247.00
2023-02-04T11:02:57.597Z,101247.00
2023-02-04T11:05:31.611Z,101243.53
2023-02-04T11:08:00.739Z,101236.69
2023-02-04T11:10:33.272Z,101234.09
2023-02-04T11:13:05.674Z,101229.81
2023-02-04T11:15:50.614Z,101234.03
2023-02-04T11:18:34.039Z,101237.41
2023-02-04T11:21:02.667Z,101239.94
2023-02-04T11:23:37.575Z,101234.84
2023-02-04T11:26:16.396Z,101225.44
2023-02-04T11:29:11.343Z,101239.84
2023-02-04T11:32:03.205Z,101240.72
2023-02-04T11:34:49.664Z,101238.97
2023-02-04T11:37:35.876Z,101241.47
2023-02-04T11:40:22.573Z,101249.13
2023-02-04T11:42:52.028Z,101241.44
2023-02-04T11:45:25.860Z,101238.84
2023-02-04T11:48:00.657Z,101242.19
2023-02-04T11:50:33.354Z,101240.50
2023-02-04T11:53:03.424Z,101240.50
2023-02-04T11:55:34.011Z,101238.78
2023-02-04T11:58:03.145Z,101237.03
2023-02-04T12:00:34.100Z,101235.31
2023-02-04T12:03:08.791Z,101237.81
2023-02-04T12:05:41.895Z,101232.72
2023-02-04T12:08:25.446Z,101233.56
2023-02-04T12:11:05.453Z,101222.50
2023-02-04T12:13:35.324Z,101229.34
2023-02-04T12:16:07.198Z,101231.03
2023-02-04T12:18:37.242Z,101231.00
2023-02-04T12:21:06.596Z,101229.28
2023-02-04T12:23:35.361Z,101229.28
2023-02-04T12:26:04.051Z,101229.25
2023-02-04T12:28:32.865Z,101234.28
2023-02-04T12:31:01.867Z,101245.34
2023-02-04T12:33:30.680Z,101247.00
2023-02-04T12:36:00.683Z,101247.84
2023-02-04T12:38:29.317Z,101247.00
2023-02-04T12:40:57.979Z,101237.66
2023-02-04T12:43:28.378Z,101252.03
2023-02-04T12:45:57.156Z,101248.56
2023-02-04T12:48:26.779Z,101248.56
2023-02-04T12:50:55.484Z,101251.09
2023-02-04T12:53:25.488Z,101251.91
2023-02-04T12:55:54.592Z,101247.63
2023-02-04T12:58:23.712Z,101251.00
2023-02-04T13:00:52.483Z,101243.41
2023-02-04T13:03:21.156Z,101256.91
2023-02-04T13:05:49.808Z,101249.22
2023-02-04T13:08:18.450Z,101243.25
2023-02-04T13:10:51.907Z,101241.50
2023-02-04T13:13:20.616Z,101243.19
2023-02-04T13:15:49.354Z,101244.06
2023-02-04T13:18:18.484Z,101247.47
2023-02-04T13:20:47.494Z,101238.16
2023-02-04T13:23:16.160Z,101240.69
2023-02-04T13:25:45.223Z,101248.44
2023-02-04T13:28:15.346Z,101247.63
2023-02-04T13:30:44.099Z,101242.59
2023-02-04T13:33:12.867Z,101246.00
2023-02-04T13:35:41.509Z,101245.19
2023-02-04T13:38:10.138Z,101245.19
2023-02-04T13:40:39.353Z,101251.16
2023-02-04T13:43:08.022Z,101246.91
2023-02-04T13:45:38.024Z,101248.63
2023-02-04T13:48:06.828Z,101247.75
2023-02-04T13:50:35.541Z,101248.63
2023-02-04T13:53:04.326Z,101248.63
2023-02-04T13:55:33.224Z,101246.91
2023-02-04T13:58:02.617Z,101257.94
2023-02-04T14:00:31.928Z,101261.41
2023-02-04T14:03:02.129Z,101260.59
2023-02-04T14:05:30.891Z,101259.78
2023-02-04T14:07:59.868Z,101259.84
2023-02-04T14:10:28.511Z,101257.28
2023-02-04T14:12:58.606Z,101264.88
2023-02-04T14:15:27.370Z,101258.97
2023-02-04T14:17:55.939Z,101264.06
2023-02-04T14:20:25.950Z,101260.66
2023-02-04T14:22:54.579Z,101267.50
2023-02-04T14:25:24.190Z,101266.66
2023-02-04T14:27:53.023Z,101262.38
2023-02-04T14:30:25.739Z,101252.25
2023-02-04T14:32:55.142Z,101254.78
2023-02-04T14:35:26.112Z,101264.16
2023-02-04T14:37:54.850Z,101259.09
2023-02-04T14:40:23.604Z,101258.31
2023-02-04T14:42:52.218Z,101260.84
2023-02-04T14:45:21.022Z,101268.50
2023-02-04T14:47:51.888Z,101264.28
2023-02-04T14:50:26.969Z,101262.59
2023-02-04T14:52:57.333Z,101254.19
2023-02-04T14:55:26.088Z,101260.16
2023-02-04T14:57:55.165Z,101271.22
2023-02-04T15:00:24.411Z,101267.03
2023-02-04T15:02:53.119Z,101261.94
2023-02-04T15:05:21.698Z,101272.13
2023-02-04T15:07:50.376Z,101278.94
2023-02-04T15:10:20.518Z,101275.56
2023-02-04T15:12:49.333Z,101274.69
2023-02-04T15:15:18.410Z,101278.97
2023-02-04T15:17:47.026Z,101274.75
2023-02-04T15:20:16.744Z,101279.84
2023-02-04T15:22:45.552Z,101278.97
2023-02-04T15:25:14.960Z,101281.53
2023-02-04T15:27:44.945Z,101272.19
2023-02-04T15:30:13.887Z,101270.53
2023-02-04T15:32:43.060Z,101270.53
2023-02-04T15:35:11.678Z,101273.97
2023-02-04T15:37:40.332Z,101271.41
2023-02-04T15:40:10.668Z,101276.56
2023-02-04T15:42:39.259Z,101285.09
2023-02-04T15:45:10.490Z,101283.47
2023-02-04T15:47:39.204Z,101291.09
2023-02-04T15:50:11.003Z,101283.50
2023-02-04T15:52:39.718Z,101286.09
2023-02-04T15:55:09.087Z,101291.25
2023-02-04T15:57:38.497Z,101287.84
2023-02-04T16:00:10.814Z,101292.13
2023-02-04T16:02:39.477Z,101288.75
2023-02-04T16:05:08.978Z,101290.50
2023-02-04T16:07:37.721Z,101296.44
2023-02-04T16:10:07.249Z,101292.22
2023-02-04T16:12:35.907Z,101300.78
2023-02-04T16:15:04.918Z,101310.06
2023-02-04T16:17:34.998Z,101308.41
2023-02-04T16:20:04.779Z,101316.06
2023-02-04T16:22:33.466Z,101304.97
2023-02-04T16:25:02.152Z,101316.03
2023-02-04T16:27:31.920Z,101308.38
2023-02-04T16:30:01.178Z,101321.94
2023-02-04T16:32:30.267Z,101318.53
2023-02-04T16:35:00.601Z,101320.25
2023-02-04T16:37:29.572Z,101324.44
2023-02-04T16:39:58.272Z,101327.91
2023-02-04T16:42:27.009Z,101327.03
2023-02-04T16:44:55.843Z,101339.75
2023-02-04T16:47:24.824Z,101333.81
2023-02-04T16:49:55.216Z,101338.91
2023-02-04T16:52:25.190Z,101351.63
2023-02-04T16:54:53.780Z,101351.66
2023-02-04T16:57:22.417Z,101353.38
2023-02-04T16:59:51.231Z,101356.81
2023-02-04T17:02:19.806Z,101349.22
2023-02-04T17:04:48.367Z,101356.03
2023-02-04T17:07:16.942Z,101364.56
2023-02-04T17:09:46.931Z,101356.13
2023-02-04T17:12:15.640Z,101358.69
2023-02-04T17:14:44.227Z,101355.31
2023-02-04T17:17:12.886Z,101370.63
2023-02-04T17:19:41.498Z,101362.16
2023-02-04T17:22:10.169Z,101357.97
2023-02-04T17:24:43.548Z,101363.06
2023-02-04T17:27:14.175Z,101366.47
2023-02-04T17:29:42.779Z,101366.47
2023-02-04T17:32:12.500Z,101363.94
2023-02-04T17:34:41.167Z,101363.09
2023-02-04T17:37:10.739Z,101369.03
2023-02-04T17:39:39.320Z,101370.75
2023-02-04T17:42:07.928Z,101355.50
2023-02-04T17:44:38.082Z,101360.59
2023-02-04T17:47:06.825Z,101356.38
2023-02-04T17:49:36.304Z,101365.75
2023-02-04T17:52:05.273Z,101368.34
2023-02-04T17:54:34.212Z,101367.47
2023-02-04T17:57:16.390Z,101373.44
2023-02-04T17:59:46.863Z,101374.34
2023-02-04T18:02:26.191Z,101374.34
2023-02-04T18:04:58.316Z,101370.97
2023-02-04T18:07:27.537Z,101371.84
2023-02-04T18:10:17.500Z,101378.66
2023-02-04T18:12:46.195Z,101377.84
2023-02-04T18:15:27.940Z,101371.88
2023-02-04T18:18:13.558Z,101370.28
2023-02-04T18:20:42.227Z,101377.16
2023-02-04T18:23:18.056Z,101375.47
2023-02-04T18:25:48.611Z,101377.22
2023-02-04T18:28:22.884Z,101377.22
2023-02-04T18:30:58.823Z,101379.84
2023-02-04T18:33:28.774Z,101379.06
2023-02-04T18:36:01.583Z,101377.38
2023-02-04T18:38:34.389Z,101383.34
2023-02-04T18:41:15.161Z,101382.56
2023-02-04T18:43:48.197Z,101369.84
2023-02-04T18:46:26.097Z,101388.53
2023-02-04T18:49:08.763Z,101383.38
2023-02-04T18:51:41.737Z,101377.47
2023-02-04T18:54:35.304Z,101377.47
2023-02-04T18:57:29.902Z,101376.63
2023-02-04T19:00:27.685Z,101380.03
2023-02-04T19:03:01.326Z,101388.56
2023-02-04T19:05:35.173Z,101389.41
2023-02-04T19:08:26.745Z,101389.44
2023-02-04T19:10:57.341Z,101388.63
2023-02-04T19:13:29.176Z,101389.47
2023-02-04T19:16:02.821Z,101392.88
2023-02-04T19:18:38.804Z,101392.88
2023-02-04T19:21:27.300Z,101394.66
2023-02-04T19:24:17.668Z,101401.47
2023-02-04T19:26:53.846Z,101404.94
2023-02-04T19:29:42.926Z,101404.97
2023-02-04T19:32:31.144Z,101403.28
2023-02-04T19:35:16.295Z,101403.28
2023-02-04T19:37:49.250Z,101405.00
2023-02-04T19:40:29.675Z,101399.09
2023-02-04T19:43:21.950Z,101392.31
2023-02-04T19:45:52.050Z,101399.97
2023-02-04T19:48:29.925Z,101404.19
2023-02-04T19:51:02.740Z,101394.91
2023-02-04T19:53:32.291Z,101403.38
2023-02-04T19:56:00.867Z,101400.88
2023-02-04T19:58:38.075Z,101403.41
2023-02-04T20:01:13.089Z,101394.91
2023-02-04T20:03:43.753Z,101393.22
2023-02-04T20:06:36.552Z,101384.72
2023-02-04T20:09:15.952Z,101387.28
2023-02-04T20:12:05.760Z,101393.28
2023-02-04T20:14:47.219Z,101395.00
2023-02-04T20:17:35.474Z,101400.13
2023-02-04T20:20:22.061Z,101396.75
2023-02-04T20:22:55.467Z,101400.13
2023-02-04T20:25:43.831Z,101393.34
2023-02-04T20:28:45.548Z,101401.84
2023-02-04T20:31:29.751Z,101399.34
2023-02-04T20:34:00.320Z,101413.75
2023-02-04T20:36:43.256Z,101413.75
2023-02-04T20:39:41.491Z,101413.75
2023-02-04T20:42:44.836Z,101418.06
2023-02-04T20:45:32.935Z,101424.03
2023-02-04T20:48:28.908Z,101431.66
2023-02-04T20:51:01.448Z,101435.97
2023-02-04T20:53:37.954Z,101444.47
2023-02-04T20:56:37.508Z,101447.88
2023-02-04T20:59:28.246Z,101454.66
2023-02-04T21:01:57.210Z,101450.47
2023-02-04T21:04:32.354Z,101449.56
2023-02-04T21:07:04.104Z,101448.78
2023-02-04T21:09:37.515Z,101440.31
2023-02-04T21:12:08.233Z,101450.50
2023-02-04T21:14:37.335Z,101453.06
2023-02-04T21:17:06.366Z,101458.16
2023-02-04T21:19:35.402Z,101454.72
2023-02-04T21:22:04.024Z,101455.59
2023-02-04T21:24:33.211Z,101451.34
2023-02-04T21:27:02.085Z,101458.16
2023-02-04T21:29:32.088Z,101454.75
2023-02-04T21:32:00.671Z,101449.63
2023-02-04T21:34:30.051Z,101459.81
2023-02-04T21:36:58.599Z,101447.94
2023-02-04T21:39:27.520Z,101446.22
2023-02-04T21:42:10.241Z,101450.47
2023-02-04T21:44:40.990Z,101439.44
2023-02-04T21:47:09.603Z,101437.69
2023-02-04T21:49:40.758Z,101440.28
2023-02-04T21:52:11.608Z,101429.25
2023-02-04T21:54:40.183Z,101439.44
2023-02-04T21:57:08.746Z,101432.69
2023-02-04T21:59:37.335Z,101435.25
2023-02-04T22:02:07.409Z,101436.09
2023-02-04T22:04:36.228Z,101445.44
2023-02-04T22:07:04.964Z,101444.63
2023-02-04T22:09:33.616Z,101444.59
2023-02-04T22:12:04.346Z,101440.38
2023-02-04T22:14:32.956Z,101439.53
2023-02-04T22:17:01.637Z,101442.13
2023-02-04T22:19:31.671Z,101434.50
2023-02-04T22:22:00.649Z,101434.50
2023-02-04T22:24:29.292Z,101425.16
2023-02-04T22:26:57.883Z,101428.56
2023-02-04T22:29:30.024Z,101432.78
2023-02-04T22:31:58.622Z,101437.88
2023-02-04T22:34:27.806Z,101442.13
2023-02-04T22:36:57.796Z,101442.97
2023-02-04T22:39:26.497Z,101443.00
2023-02-04T22:41:55.154Z,101438.72
2023-02-04T22:44:24.082Z,101441.28
2023-02-04T22:46:53.671Z,101434.53
2023-02-04T22:49:23.168Z,101432.00
2023-02-04T22:51:51.826Z,101428.59
2023-02-04T22:54:21.926Z,101426.91
2023-02-04T22:56:50.498Z,101431.13
2023-02-04T22:59:19.147Z,101437.94
2023-02-04T23:01:47.836Z,101439.63
2023-02-04T23:04:16.511Z,101446.53
2023-02-04T23:06:45.248Z,101449.94
2023-02-04T23:09:13.979Z,101442.34
2023-02-04T23:11:44.356Z,101438.09
2023-02-04T23:14:13.054Z,101444.03
2023-02-04T23:16:41.844Z,101441.47
2023-02-04T23:19:10.517Z,101439.81
2023-02-04T23:21:39.174Z,101439.00
2023-02-04T23:24:08.694Z,101439.00
2023-02-04T23:26:37.597Z,101433.09
2023-02-04T23:29:07.584Z,101428.81
2023-02-04T23:31:36.286Z,101432.22
2023-02-04T23:34:05.131Z,101439.88
2023-02-04T23:36:36.562Z,101434.78
2023-02-04T23:39:05.416Z,101445.00
2023-02-04T23:41:34.035Z,101445.03
2023-02-04T23:44:02.682Z,101449.28
2023-02-04T23:46:32.814Z,101443.34
2023-02-04T23:49:01.407Z,101440.84
2023-02-04T23:51:30.058Z,101440.00
2023-02-04T23:53:58.891Z,101441.72
2023-02-04T23:56:27.727Z,101434.91
2023-02-04T23:58:57.075Z,101438.28
